createdAt,value
2023-01-22T00:00:22.518Z,8.38
2023-01-22T00:02:51.968Z,8.65
2023-01-22T00:05:22.121Z,8.70
2023-01-22T00:07:51.554Z,8.08
2023-01-22T00:10:20.975Z,8.58
2023-01-22T00:12:50.433Z,8.13
2023-01-22T00:15:19.866Z,7.65
2023-01-22T00:17:49.268Z,8.48
2023-01-22T00:20:20.478Z,9.48
2023-01-22T00:22:50.668Z,8.60
2023-01-22T00:25:20.220Z,9.28
2023-01-22T00:27:49.644Z,9.00
2023-01-22T00:30:19.428Z,8.08
2023-01-22T00:32:50.456Z,7.95
2023-01-22T00:35:19.866Z,8.25
2023-01-22T00:37:50.193Z,8.38
2023-01-22T00:40:20.147Z,9.08
2023-01-22T00:42:50.185Z,8.05
2023-01-22T00:45:19.671Z,8.38
2023-01-22T00:47:49.509Z,8.38
2023-01-22T00:50:20.423Z,8.33
2023-01-22T00:52:50.668Z,8.73
2023-01-22T00:55:20.278Z,8.90
2023-01-22T00:57:50.207Z,8.88
2023-01-22T01:00:20.564Z,8.93
2023-01-22T01:03:08.820Z,8.93
2023-01-22T01:05:38.244Z,8.98
2023-01-22T01:08:07.729Z,8.00
2023-01-22T01:10:37.166Z,8.90
2023-01-22T01:13:06.796Z,8.68
2023-01-22T01:15:36.221Z,8.33
2023-01-22T01:18:06.203Z,8.10
2023-01-22T01:20:36.329Z,8.58
2023-01-22T01:23:09.520Z,7.47
2023-01-22T01:25:42.550Z,8.27
2023-01-22T01:28:12.119Z,9.23
2023-01-22T01:30:41.659Z,8.15
2023-01-22T01:33:11.150Z,8.50
2023-01-22T01:35:40.835Z,8.63
2023-01-22T01:38:10.387Z,7.97
2023-01-22T01:40:46.290Z,7.95
2023-01-22T01:43:18.497Z,8.25
2023-01-22T01:45:49.583Z,7.97
2023-01-22T01:48:28.835Z,8.13
2023-01-22T01:51:16.083Z,8.65
2023-01-22T01:53:48.754Z,7.87
2023-01-22T01:56:27.018Z,8.40
2023-01-22T01:59:02.140Z,9.03
2023-01-22T02:01:34.246Z,8.83
2023-01-22T02:04:05.211Z,8.58
2023-01-22T02:06:34.665Z,8.28
2023-01-22T02:09:05.282Z,8.13
2023-01-22T02:11:37.321Z,8.45
2023-01-22T02:14:10.166Z,7.83
2023-01-22T02:16:39.967Z,8.50
2023-01-22T02:19:10.096Z,8.80
2023-01-22T02:21:42.414Z,8.70
2023-01-22T02:24:18.000Z,8.35
2023-01-22T02:26:49.174Z,8.50
2023-01-22T02:29:20.304Z,7.90
2023-01-22T02:31:50.050Z,7.97
2023-01-22T02:34:22.857Z,8.93
2023-01-22T02:36:53.739Z,8.58
2023-01-22T02:39:23.319Z,8.95
2023-01-22T02:41:53.091Z,8.80
2023-01-22T02:44:23.055Z,8.38
2023-01-22T02:46:52.557Z,8.03
2023-01-22T02:49:21.981Z,8.18
2023-01-22T02:51:52.776Z,9.18
2023-01-22T02:54:22.570Z,9.03
2023-01-22T02:56:53.432Z,9.18
2023-01-22T02:59:23.106Z,8.45
2023-01-22T03:01:52.660Z,8.38
2023-01-22T03:04:22.222Z,8.08
2023-01-22T03:06:51.644Z,9.00
2023-01-22T03:09:21.143Z,8.75
2023-01-22T03:11:50.813Z,8.70
2023-01-22T03:14:39.922Z,8.73
2023-01-22T03:17:28.710Z,8.88
2023-01-22T03:20:18.168Z,8.65
2023-01-22T03:22:50.342Z,8.63
2023-01-22T03:25:22.306Z,8.93
2023-01-22T03:28:13.314Z,9.03
2023-01-22T03:30:50.485Z,9.50
2023-01-22T03:33:20.167Z,9.55
2023-01-22T03:35:50.650Z,9.30
2023-01-22T03:38:21.903Z,8.65
2023-01-22T03:40:51.413Z,8.60
2023-01-22T03:43:21.398Z,9.18
2023-01-22T03:45:51.340Z,9.40
2023-01-22T03:48:21.689Z,9.40
2023-01-22T03:50:51.606Z,8.65
2023-01-22T03:53:21.305Z,10.13
2023-01-22T03:56:02.172Z,8.90
2023-01-22T03:58:33.675Z,9.03
2023-01-22T04:01:09.076Z,9.85
2023-01-22T04:03:40.162Z,9.73
2023-01-22T04:06:11.511Z,9.60
2023-01-22T04:08:43.122Z,9.83
2023-01-22T04:11:13.562Z,9.68
2023-01-22T04:13:44.445Z,9.65
2023-01-22T04:16:15.673Z,10.25
2023-01-22T04:19:03.231Z,9.50
2023-01-22T04:21:34.360Z,9.95
2023-01-22T04:24:06.067Z,10.00
2023-01-22T04:26:35.677Z,9.50
2023-01-22T04:29:05.776Z,10.55
2023-01-22T04:31:36.009Z,10.23
2023-01-22T04:34:10.440Z,10.13
2023-01-22T04:36:44.937Z,10.35
2023-01-22T04:39:14.451Z,10.63
2023-01-22T04:41:43.893Z,10.43
2023-01-22T04:44:13.507Z,9.78
2023-01-22T04:46:43.989Z,10.35
2023-01-22T04:49:15.092Z,10.13
2023-01-22T04:51:45.514Z,10.28
2023-01-22T04:54:18.384Z,10.98
2023-01-22T04:56:47.962Z,10.60
2023-01-22T04:59:17.663Z,9.83
2023-01-22T05:01:47.533Z,10.80
2023-01-22T05:04:17.661Z,11.05
2023-01-22T05:06:47.140Z,11.40
2023-01-22T05:09:16.870Z,10.65
2023-01-22T05:11:57.410Z,10.65
2023-01-22T05:14:27.812Z,10.32
2023-01-22T05:16:57.385Z,10.93
2023-01-22T05:19:27.471Z,10.20
2023-01-22T05:21:57.657Z,10.60
2023-01-22T05:24:30.656Z,11.00
2023-01-22T05:27:00.942Z,12.18
2023-01-22T05:29:32.140Z,11.30
2023-01-22T05:32:06.363Z,12.35
2023-01-22T05:34:37.604Z,11.15
2023-01-22T05:37:09.269Z,12.00
2023-01-22T05:39:39.161Z,11.73
2023-01-22T05:42:17.337Z,11.43
2023-01-22T05:44:48.896Z,11.20
2023-01-22T05:47:20.272Z,11.93
2023-01-22T05:50:00.949Z,12.53
2023-01-22T05:52:30.446Z,12.30
2023-01-22T05:55:01.853Z,12.27
2023-01-22T05:57:34.619Z,11.83
2023-01-22T06:00:07.163Z,11.57
2023-01-22T06:02:38.328Z,11.90
2023-01-22T06:05:09.679Z,12.50
2023-01-22T06:07:39.173Z,11.73
2023-01-22T06:10:09.657Z,12.93
2023-01-22T06:12:40.841Z,12.35
2023-01-22T06:15:12.999Z,12.58
2023-01-22T06:17:44.130Z,12.40
2023-01-22T06:20:13.845Z,11.73
2023-01-22T06:22:43.275Z,11.95
2023-01-22T06:25:13.032Z,12.93
2023-01-22T06:27:47.852Z,12.60
2023-01-22T06:30:17.993Z,13.10
2023-01-22T06:32:47.772Z,12.00
2023-01-22T06:35:17.441Z,13.00
2023-01-22T06:37:46.938Z,12.07
2023-01-22T06:40:16.857Z,13.28
2023-01-22T06:42:48.234Z,13.70
2023-01-22T06:45:18.909Z,13.70
2023-01-22T06:47:50.439Z,13.07
2023-01-22T06:50:20.334Z,13.45
2023-01-22T06:52:50.425Z,13.43
2023-01-22T06:55:20.630Z,15.75
2023-01-22T06:57:50.124Z,15.43
2023-01-22T07:00:20.653Z,14.35
2023-01-22T07:02:50.753Z,13.68
2023-01-22T07:05:20.292Z,15.08
2023-01-22T07:07:49.911Z,14.47
2023-01-22T07:10:19.707Z,14.95
2023-01-22T07:12:50.458Z,15.18
2023-01-22T07:15:19.890Z,15.40
2023-01-22T07:17:53.549Z,15.25
2023-01-22T07:32:48.988Z,14.98
2023-01-22T07:35:19.264Z,16.50
2023-01-22T07:37:56.867Z,15.30
2023-01-22T07:40:27.023Z,16.27
2023-01-22T07:42:57.172Z,15.98
2023-01-22T07:45:26.967Z,16.48
2023-01-22T07:47:59.697Z,16.25
2023-01-22T07:50:31.763Z,16.62
2023-01-22T07:55:33.422Z,16.60
2023-01-22T07:58:05.595Z,17.65
2023-01-22T08:00:36.763Z,15.15
2023-01-22T08:03:09.490Z,16.37
2023-01-22T08:05:42.892Z,15.83
2023-01-22T08:08:23.257Z,16.77
2023-01-22T08:10:52.767Z,17.55
2023-01-22T08:13:22.196Z,16.93
2023-01-22T08:15:51.680Z,17.12
2023-01-22T08:18:22.964Z,17.40
2023-01-22T08:20:52.323Z,18.92
2023-01-22T08:23:22.296Z,17.07
2023-01-22T08:25:51.771Z,17.67
2023-01-22T08:28:21.221Z,17.30
2023-01-22T08:30:50.915Z,18.30
2023-01-22T08:33:20.575Z,16.80
2023-01-22T08:35:50.276Z,18.17
2023-01-22T08:38:19.870Z,17.90
2023-01-22T08:40:53.428Z,16.85
2023-01-22T08:43:23.214Z,16.93
2023-01-22T08:45:52.649Z,18.95
2023-01-22T08:48:22.144Z,17.32
2023-01-22T08:50:51.669Z,19.30
2023-01-22T08:55:52.565Z,17.12
2023-01-22T08:58:23.984Z,17.13
2023-01-22T09:00:54.769Z,18.90
2023-01-22T09:03:24.909Z,17.90
2023-01-22T09:05:54.498Z,18.45
2023-01-22T09:08:23.983Z,18.65
2023-01-22T09:10:53.496Z,19.25
2023-01-22T09:13:23.586Z,20.00
2023-01-22T09:15:54.552Z,18.80
2023-01-22T09:18:24.233Z,18.77
2023-01-22T09:20:53.757Z,18.67
2023-01-22T09:23:23.330Z,17.42
2023-01-22T09:25:52.849Z,17.50
2023-01-22T09:28:22.263Z,18.25
2023-01-22T09:30:52.752Z,19.42
2023-01-22T09:33:22.322Z,19.98
2023-01-22T09:35:51.752Z,18.85
2023-01-22T09:38:21.258Z,18.37
2023-01-22T09:40:55.320Z,19.87
2023-01-22T09:43:30.600Z,24.30
2023-01-22T09:46:06.216Z,19.55
2023-01-22T09:48:41.868Z,21.37
2023-01-22T09:51:14.528Z,20.10
2023-01-22T09:53:46.910Z,18.95
2023-01-22T09:56:22.255Z,18.67
2023-01-22T09:58:53.237Z,19.07
2023-01-22T10:01:24.661Z,18.17
2023-01-22T10:03:57.552Z,19.57
2023-01-22T10:06:28.581Z,19.05
2023-01-22T10:09:09.729Z,19.27
2023-01-22T10:11:40.015Z,19.20
2023-01-22T10:14:12.495Z,20.35
2023-01-22T10:16:42.285Z,19.37
2023-01-22T10:19:27.046Z,18.02
2023-01-22T10:21:59.597Z,17.95
2023-01-22T10:24:30.212Z,18.73
2023-01-22T10:27:02.791Z,19.98
2023-01-22T10:29:37.949Z,20.23
2023-01-22T10:32:25.716Z,19.65
2023-01-22T10:35:03.586Z,20.05
2023-01-22T10:37:45.063Z,19.07
2023-01-22T10:40:38.660Z,19.85
2023-01-22T10:43:17.690Z,19.60
2023-01-22T10:46:02.058Z,19.57
2023-01-22T10:48:32.010Z,20.52
2023-01-22T10:51:18.870Z,21.80
2023-01-22T10:53:51.441Z,21.23
2023-01-22T10:56:32.474Z,21.77
2023-01-22T10:59:05.664Z,20.45
2023-01-22T11:01:43.199Z,19.77
2023-01-22T11:04:24.100Z,20.68
2023-01-22T11:06:56.608Z,19.32
2023-01-22T11:09:40.860Z,19.65
2023-01-22T11:12:26.232Z,19.17
2023-01-22T11:15:14.347Z,17.30
2023-01-22T11:17:46.889Z,20.37
2023-01-22T11:20:31.505Z,20.05
2023-01-22T11:23:12.944Z,19.75
2023-01-22T11:26:02.657Z,20.15
2023-01-22T11:28:36.789Z,19.52
2023-01-22T11:31:24.685Z,21.48
2023-01-22T11:34:20.069Z,20.43
2023-01-22T11:37:01.975Z,20.95
2023-01-22T11:39:46.353Z,19.63
2023-01-22T11:42:36.370Z,20.43
2023-01-22T11:45:26.717Z,21.90
2023-01-22T11:48:18.739Z,19.42
2023-01-22T11:50:51.327Z,20.87
2023-01-22T11:53:41.889Z,19.55
2023-01-22T11:56:35.358Z,21.05
2023-01-22T11:59:24.900Z,21.15
2023-01-22T12:02:13.827Z,19.27
2023-01-22T12:04:55.073Z,20.68
2023-01-22T12:07:35.491Z,21.40
2023-01-22T12:10:08.383Z,19.55
2023-01-22T12:12:46.613Z,20.37
2023-01-22T12:15:28.207Z,21.80
2023-01-22T12:18:16.957Z,22.13
2023-01-22T12:20:55.217Z,20.68
2023-01-22T12:23:27.723Z,20.92
2023-01-22T12:26:00.312Z,21.45
2023-01-22T12:28:38.635Z,21.73
2023-01-22T12:31:20.100Z,20.27
2023-01-22T12:33:49.792Z,21.17
2023-01-22T12:36:22.292Z,22.10
2023-01-22T12:39:11.377Z,20.40
2023-01-22T12:41:46.835Z,22.62
2023-01-22T12:44:22.106Z,22.00
2023-01-22T12:47:18.078Z,22.10
2023-01-22T12:49:50.341Z,21.57
2023-01-22T12:54:59.676Z,23.45
2023-01-22T12:57:35.149Z,23.90
2023-01-22T13:00:24.771Z,22.73
2023-01-22T13:02:54.256Z,21.62
2023-01-22T13:05:29.538Z,23.70
2023-01-22T13:08:10.565Z,24.07
2023-01-22T13:10:40.947Z,22.93
2023-01-22T13:13:25.626Z,23.90
2023-01-22T13:15:58.296Z,23.87
2023-01-22T13:18:31.662Z,21.85
2023-01-22T13:23:43.308Z,24.12
2023-01-22T13:26:25.093Z,22.02
2023-01-22T13:28:57.923Z,23.15
2023-01-22T13:31:27.684Z,21.87
2023-01-22T13:34:00.317Z,23.25
2023-01-22T13:36:29.948Z,23.83
2023-01-22T13:39:00.492Z,22.85
2023-01-22T13:41:33.649Z,23.73
2023-01-22T13:44:05.028Z,30.47
2023-01-22T13:46:37.628Z,28.43
2023-01-22T13:51:38.506Z,23.38
2023-01-22T13:54:08.758Z,24.27
2023-01-22T13:56:38.377Z,23.30
2023-01-22T13:59:11.012Z,25.02
2023-01-22T14:01:40.501Z,24.92
2023-01-22T14:04:28.395Z,24.70
2023-01-22T14:06:57.993Z,27.85
2023-01-22T14:09:33.155Z,23.60
2023-01-22T14:12:14.937Z,27.77
2023-01-22T14:14:44.877Z,25.00
2023-01-22T14:17:34.646Z,33.87
2023-01-22T14:20:05.114Z,32.85
2023-01-22T14:22:34.619Z,25.60
2023-01-22T14:25:04.725Z,36.23
2023-01-22T14:27:43.303Z,35.50
2023-01-22T14:30:15.520Z,27.17
2023-01-22T14:32:46.012Z,37.67
2023-01-22T14:35:20.262Z,37.90
2023-01-22T14:37:50.560Z,29.40
2023-01-22T14:40:21.832Z,27.73
2023-01-22T14:47:52.749Z,26.60
2023-01-22T14:50:23.611Z,27.55
2023-01-22T14:52:53.405Z,27.20
2023-01-22T14:55:22.967Z,30.37
2023-01-22T14:57:52.510Z,26.07
2023-01-22T15:00:22.728Z,27.87
2023-01-22T15:02:57.503Z,28.75
2023-01-22T15:05:28.712Z,31.77
2023-01-22T15:07:59.070Z,27.77
2023-01-22T15:10:28.987Z,28.67
2023-01-22T15:12:59.043Z,28.07
2023-01-22T15:15:28.699Z,29.18
2023-01-22T15:17:59.149Z,25.75
2023-01-22T15:20:28.605Z,27.75
2023-01-22T15:22:58.104Z,27.22
2023-01-22T15:25:27.548Z,28.80
2023-01-22T15:27:57.024Z,29.60
2023-01-22T15:30:26.636Z,29.30
2023-01-22T15:32:56.052Z,30.65
2023-01-22T15:35:25.840Z,35.70
2023-01-22T15:37:55.271Z,31.42
2023-01-22T15:40:24.701Z,37.20
2023-01-22T15:42:54.170Z,39.78
2023-01-22T15:45:23.607Z,40.83
2023-01-22T15:47:54.181Z,36.70
2023-01-22T15:50:23.688Z,42.55
2023-01-22T15:52:59.103Z,37.47
2023-01-22T15:55:28.548Z,39.40
2023-01-22T15:58:00.185Z,39.73
2023-01-22T16:00:29.651Z,36.28
2023-01-22T16:02:59.099Z,35.55
2023-01-22T16:05:29.677Z,34.08
2023-01-22T16:07:59.134Z,36.98
2023-01-22T16:10:28.944Z,35.97
2023-01-22T16:12:58.560Z,48.57
2023-01-22T16:15:28.954Z,36.80
2023-01-22T16:18:00.020Z,38.88
2023-01-22T16:20:30.080Z,38.92
2023-01-22T16:22:59.496Z,35.40
2023-01-22T16:25:28.937Z,44.38
2023-01-22T16:30:27.259Z,46.37
2023-01-22T16:32:56.757Z,48.78
2023-01-22T16:35:26.404Z,41.95
2023-01-22T16:37:55.842Z,37.38
2023-01-22T16:40:25.268Z,32.60
2023-01-22T16:43:03.292Z,29.05
2023-01-22T16:45:36.867Z,30.25
2023-01-22T16:48:07.072Z,40.40
2023-01-22T16:50:36.636Z,33.25
2023-01-22T16:53:06.053Z,44.58
2023-01-22T16:55:35.630Z,30.43
2023-01-22T16:58:05.064Z,30.57
2023-01-22T17:00:35.213Z,37.90
2023-01-22T17:03:05.208Z,48.30
2023-01-22T17:05:34.715Z,45.43
2023-01-22T17:08:04.755Z,46.15
2023-01-22T17:13:06.251Z,35.35
2023-01-22T17:15:37.523Z,34.10
2023-01-22T17:20:35.597Z,27.37
2023-01-22T17:23:05.029Z,32.25
2023-01-22T17:30:31.573Z,27.45
2023-01-22T17:33:01.081Z,28.02
2023-01-22T17:35:30.580Z,34.92
2023-01-22T17:38:00.000Z,40.25
2023-01-22T17:40:29.941Z,36.05
2023-01-22T17:42:59.375Z,32.55
2023-01-22T17:45:28.808Z,31.60
2023-01-22T17:47:59.997Z,30.50
2023-01-22T17:50:29.657Z,36.25
2023-01-22T17:52:59.152Z,35.70
2023-01-22T17:55:31.024Z,35.80
2023-01-22T17:58:00.506Z,31.02
2023-01-22T18:03:01.273Z,27.87
2023-01-22T18:05:30.759Z,30.88
2023-01-22T18:08:00.641Z,29.32
2023-01-22T18:10:30.843Z,33.53
2023-01-22T18:13:00.369Z,44.27
2023-01-22T18:15:29.799Z,37.08
2023-01-22T18:17:59.254Z,40.55
2023-01-22T18:20:29.084Z,60.50
2023-01-22T18:22:58.530Z,67.82
2023-01-22T18:25:27.973Z,46.45
2023-01-22T18:27:57.905Z,44.05
2023-01-22T18:30:27.398Z,39.80
2023-01-22T18:32:56.863Z,41.60
2023-01-22T18:35:28.128Z,43.48
2023-01-22T18:37:59.497Z,37.48
2023-01-22T18:40:31.837Z,29.60
2023-01-22T18:43:01.260Z,28.83
2023-01-22T18:45:30.692Z,32.65
2023-01-22T18:48:00.701Z,28.73
2023-01-22T18:50:30.194Z,38.20
2023-01-22T18:53:01.615Z,30.15
2023-01-22T18:55:32.492Z,28.38
2023-01-22T18:58:04.276Z,30.40
2023-01-22T19:00:34.531Z,27.87
2023-01-22T19:03:04.141Z,28.45
2023-01-22T19:05:33.715Z,28.23
2023-01-22T19:08:03.153Z,28.95
2023-01-22T19:10:33.247Z,28.50
2023-01-22T19:13:02.674Z,28.90
2023-01-22T19:15:33.384Z,30.45
2023-01-22T19:18:03.725Z,35.05
2023-01-22T19:20:37.162Z,30.50
2023-01-22T19:23:07.150Z,28.87
2023-01-22T19:25:36.599Z,28.25
2023-01-22T19:28:06.497Z,31.07
2023-01-22T19:30:36.126Z,29.82
2023-01-22T19:33:05.616Z,33.63
2023-01-22T19:35:35.140Z,29.98
2023-01-22T19:38:05.431Z,32.38
2023-01-22T19:40:35.459Z,29.92
2023-01-22T19:43:05.647Z,31.10
2023-01-22T19:45:37.519Z,27.67
2023-01-22T19:48:07.392Z,28.20
2023-01-22T19:53:05.632Z,28.40
2023-01-22T19:58:07.923Z,36.65
2023-01-22T20:03:08.536Z,32.00
2023-01-22T20:05:42.558Z,34.70
2023-01-22T20:13:12.950Z,30.48
2023-01-22T20:18:12.763Z,36.63
2023-01-22T20:20:42.198Z,46.65
2023-01-22T20:28:10.912Z,32.73
2023-01-22T20:33:11.775Z,27.85
2023-01-22T20:35:44.828Z,30.97
2023-01-22T20:38:14.264Z,25.90
2023-01-22T20:40:45.420Z,26.52
2023-01-22T20:43:16.499Z,25.97
2023-01-22T20:45:47.195Z,33.25
2023-01-22T20:48:17.469Z,29.52
2023-01-22T20:50:47.008Z,39.33
2023-01-22T20:53:16.443Z,36.50
2023-01-22T20:55:45.879Z,33.85
2023-01-22T20:58:15.757Z,39.20
2023-01-22T21:00:45.193Z,36.93
2023-01-22T21:03:14.624Z,34.33
2023-01-22T21:05:44.446Z,29.25
2023-01-22T21:08:15.075Z,34.20
2023-01-22T21:10:45.175Z,29.05
2023-01-22T21:13:16.230Z,27.90
2023-01-22T21:35:35.303Z,25.75
2023-01-22T21:38:04.836Z,28.50
2023-01-22T21:40:34.256Z,40.37
2023-01-22T21:43:21.505Z,32.58
2023-01-22T21:46:08.836Z,28.67
2023-01-22T21:48:38.398Z,26.37
2023-01-22T21:51:09.116Z,24.77
2023-01-22T21:53:38.998Z,24.77
2023-01-22T21:56:08.963Z,23.70
2023-01-22T21:58:40.760Z,24.80
2023-01-22T22:01:11.047Z,24.33
2023-01-22T22:03:40.979Z,22.85
2023-01-22T22:06:13.443Z,23.37
2023-01-22T22:08:44.830Z,23.07
2023-01-22T22:11:15.099Z,24.53
2023-01-22T22:13:44.533Z,22.65
2023-01-22T22:16:14.280Z,23.15
2023-01-22T22:18:43.790Z,22.60
2023-01-22T22:21:14.165Z,26.85
2023-01-22T22:23:44.034Z,23.80
2023-01-22T22:26:13.557Z,24.30
2023-01-22T22:28:43.632Z,29.27
2023-01-22T22:31:15.909Z,25.43
2023-01-22T22:36:17.903Z,24.12
2023-01-22T22:38:48.116Z,25.68
2023-01-22T22:41:21.008Z,30.25
2023-01-22T22:43:52.954Z,28.42
2023-01-22T22:49:01.124Z,23.90
2023-01-22T22:51:33.991Z,28.37
2023-01-22T22:54:07.819Z,28.23
2023-01-22T22:56:37.251Z,24.02
2023-01-22T23:14:11.910Z,21.90
2023-01-22T23:16:43.701Z,28.03
2023-01-22T23:19:19.097Z,28.23
2023-01-22T23:21:54.751Z,28.57
2023-01-22T23:24:25.060Z,26.77
2023-01-22T23:26:55.188Z,24.02
2023-01-22T23:29:27.105Z,22.22
2023-01-22T23:31:57.605Z,22.10
2023-01-22T23:34:27.269Z,20.95
2023-01-22T23:36:56.695Z,22.55
2023-01-22T23:39:26.606Z,22.10
2023-01-22T23:41:56.148Z,21.40
2023-01-22T23:44:25.789Z,22.25
2023-01-22T23:46:55.730Z,21.57
2023-01-22T23:49:25.152Z,20.70
2023-01-22T23:51:55.761Z,21.07
2023-01-22T23:54:25.193Z,22.35
2023-01-22T23:56:54.624Z,20.80
2023-01-22T23:59:24.287Z,22.90
